Terminal Aerodrome Forecast
Issued by NWS

Home | Current Version | Previous Version | Text Only | Print | Product List | Glossary On
Versions: 1 2 3 4 5 6 7 8 9 10 11 12
000
FTUS41 KBGM 222320
TAFITH
TAF
KITH 222320Z 2300/2324 19010KT P6SM OVC250
     FM231400 17015G25KT P6SM OVC100
     FM231800 16015G25KT P6SM OVC050=

USA.gov is the U.S. government's official web portal to all federal, state and local government web resources and services.